sensor_id;sensor_type;location;lat;lon;timestamp;P1;durP1;ratioP1;P2;durP2;ratioP2
29570;SDS011;16814;52.118;11.436;2023-02-13T00:00:33;32.00;;;13.05;;
29570;SDS011;16814;52.118;11.436;2023-02-13T00:03:00;31.20;;;12.63;;
29570;SDS011;16814;52.118;11.436;2023-02-13T00:05:28;29.88;;;12.90;;
29570;SDS011;16814;52.118;11.436;2023-02-13T00:07:53;32.17;;;12.27;;
29570;SDS011;16814;52.118;11.436;2023-02-13T00:10:26;30.48;;;12.60;;
29570;SDS011;16814;52.118;11.436;2023-02-13T00:12:51;30.73;;;12.53;;
29570;SDS011;16814;52.118;11.436;2023-02-13T00:15:17;26.45;;;11.52;;
29570;SDS011;16814;52.118;11.436;2023-02-13T00:17:44;31.10;;;12.82;;
29570;SDS011;16814;52.118;11.436;2023-02-13T00:20:13;27.90;;;12.57;;
29570;SDS011;16814;52.118;11.436;2023-02-13T00:22:41;33.30;;;13.37;;
29570;SDS011;16814;52.118;11.436;2023-02-13T00:25:09;32.58;;;12.55;;
29570;SDS011;16814;52.118;11.436;2023-02-13T00:27:36;33.05;;;12.45;;
29570;SDS011;16814;52.118;11.436;2023-02-13T00:30:02;30.07;;;11.90;;
29570;SDS011;16814;52.118;11.436;2023-02-13T00:32:31;33.30;;;13.05;;
29570;SDS011;16814;52.118;11.436;2023-02-13T00:34:58;30.90;;;12.53;;
29570;SDS011;16814;52.118;11.436;2023-02-13T00:37:25;30.85;;;12.30;;
29570;SDS011;16814;52.118;11.436;2023-02-13T00:39:51;33.72;;;12.73;;
29570;SDS011;16814;52.118;11.436;2023-02-13T00:42:18;30.10;;;12.53;;
29570;SDS011;16814;52.118;11.436;2023-02-13T00:44:49;34.10;;;14.02;;
29570;SDS011;16814;52.118;11.436;2023-02-13T00:47:16;31.33;;;12.57;;
29570;SDS011;16814;52.118;11.436;2023-02-13T00:49:44;30.67;;;12.75;;
29570;SDS011;16814;52.118;11.436;2023-02-13T00:52:11;31.85;;;13.77;;
29570;SDS011;16814;52.118;11.436;2023-02-13T00:54:38;31.20;;;13.23;;
29570;SDS011;16814;52.118;11.436;2023-02-13T00:57:04;29.77;;;12.80;;
29570;SDS011;16814;52.118;11.436;2023-02-13T00:59:32;28.15;;;12.60;;
29570;SDS011;16814;52.118;11.436;2023-02-13T01:01:59;30.13;;;12.70;;
29570;SDS011;16814;52.118;11.436;2023-02-13T01:04:25;30.88;;;13.45;;
29570;SDS011;16814;52.118;11.436;2023-02-13T01:06:51;32.67;;;12.70;;
29570;SDS011;16814;52.118;11.436;2023-02-13T01:09:17;31.40;;;12.82;;
29570;SDS011;16814;52.118;11.436;2023-02-13T01:11:43;30.85;;;13.23;;
29570;SDS011;16814;52.118;11.436;2023-02-13T01:14:10;32.50;;;13.68;;
29570;SDS011;16814;52.118;11.436;2023-02-13T01:16:37;27.50;;;12.70;;
29570;SDS011;16814;52.118;11.436;2023-02-13T01:19:04;31.42;;;13.18;;
29570;SDS011;16814;52.118;11.436;2023-02-13T01:21:30;30.50;;;13.15;;
29570;SDS011;16814;52.118;11.436;2023-02-13T01:23:57;31.87;;;13.27;;
29570;SDS011;16814;52.118;11.436;2023-02-13T01:26:26;30.80;;;13.55;;
29570;SDS011;16814;52.118;11.436;2023-02-13T01:28:53;31.27;;;12.43;;
29570;SDS011;16814;52.118;11.436;2023-02-13T01:31:22;29.05;;;12.07;;
29570;SDS011;16814;52.118;11.436;2023-02-13T01:33:48;27.42;;;12.27;;
29570;SDS011;16814;52.118;11.436;2023-02-13T01:36:19;29.52;;;13.00;;
29570;SDS011;16814;52.118;11.436;2023-02-13T01:38:46;30.55;;;12.60;;
29570;SDS011;16814;52.118;11.436;2023-02-13T01:41:12;29.27;;;12.33;;
29570;SDS011;16814;52.118;11.436;2023-02-13T01:43:46;26.17;;;11.77;;
29570;SDS011;16814;52.118;11.436;2023-02-13T01:49:17;36.80;;;13.40;;
29570;SDS011;16814;52.118;11.436;2023-02-13T01:52:04;34.80;;;13.68;;
29570;SDS011;16814;52.118;11.436;2023-02-13T01:54:32;35.13;;;13.47;;
29570;SDS011;16814;52.118;11.436;2023-02-13T01:57:12;32.13;;;13.17;;
29570;SDS011;16814;52.118;11.436;2023-02-13T01:59:46;31.25;;;12.77;;
29570;SDS011;16814;52.118;11.436;2023-02-13T02:02:25;31.10;;;13.07;;
29570;SDS011;16814;52.118;11.436;2023-02-13T02:04:52;34.17;;;13.35;;
29570;SDS011;16814;52.118;11.436;2023-02-13T02:07:23;33.43;;;13.23;;
29570;SDS011;16814;52.118;11.436;2023-02-13T02:09:54;30.90;;;12.90;;
29570;SDS011;16814;52.118;11.436;2023-02-13T02:12:29;36.67;;;14.88;;
29570;SDS011;16814;52.118;11.436;2023-02-13T02:15:00;32.78;;;13.57;;
29570;SDS011;16814;52.118;11.436;2023-02-13T02:17:31;35.63;;;14.30;;
29570;SDS011;16814;52.118;11.436;2023-02-13T02:20:00;32.03;;;13.82;;
29570;SDS011;16814;52.118;11.436;2023-02-13T02:31:46;39.92;;;15.20;;
29570;SDS011;16814;52.118;11.436;2023-02-13T02:46:30;37.03;;;14.33;;
29570;SDS011;16814;52.118;11.436;2023-02-13T02:49:37;36.50;;;14.48;;
29570;SDS011;16814;52.118;11.436;2023-02-13T02:55:29;38.60;;;13.50;;
29570;SDS011;16814;52.118;11.436;2023-02-13T02:58:12;38.25;;;14.25;;
29570;SDS011;16814;52.118;11.436;2023-02-13T03:01:24;37.13;;;13.77;;
29570;SDS011;16814;52.118;11.436;2023-02-13T03:04:15;38.58;;;13.40;;
29570;SDS011;16814;52.118;11.436;2023-02-13T03:07:14;35.47;;;13.20;;
29570;SDS011;16814;52.118;11.436;2023-02-13T03:09:46;31.17;;;12.25;;
29570;SDS011;16814;52.118;11.436;2023-02-13T03:12:44;32.78;;;12.88;;
29570;SDS011;16814;52.118;11.436;2023-02-13T03:15:40;34.83;;;12.57;;
29570;SDS011;16814;52.118;11.436;2023-02-13T03:18:34;33.70;;;13.05;;
29570;SDS011;16814;52.118;11.436;2023-02-13T03:27:39;37.33;;;13.53;;
29570;SDS011;16814;52.118;11.436;2023-02-13T03:30:42;35.65;;;13.80;;
29570;SDS011;16814;52.118;11.436;2023-02-13T03:39:52;45.55;;;17.33;;
29570;SDS011;16814;52.118;11.436;2023-02-13T03:42:25;46.70;;;17.42;;
29570;SDS011;16814;52.118;11.436;2023-02-13T03:45:03;46.50;;;18.27;;
29570;SDS011;16814;52.118;11.436;2023-02-13T03:48:03;49.30;;;19.20;;
29570;SDS011;16814;52.118;11.436;2023-02-13T03:50:33;54.75;;;20.27;;
29570;SDS011;16814;52.118;11.436;2023-02-13T03:53:08;47.75;;;19.52;;
29570;SDS011;16814;52.118;11.436;2023-02-13T03:55:39;52.05;;;19.42;;
29570;SDS011;16814;52.118;11.436;2023-02-13T03:58:34;49.75;;;19.77;;
29570;SDS011;16814;52.118;11.436;2023-02-13T04:01:25;49.20;;;19.80;;
29570;SDS011;16814;52.118;11.436;2023-02-13T04:04:04;52.60;;;21.17;;
29570;SDS011;16814;52.118;11.436;2023-02-13T04:09:23;57.78;;;21.60;;
29570;SDS011;16814;52.118;11.436;2023-02-13T04:17:23;51.75;;;20.98;;
29570;SDS011;16814;52.118;11.436;2023-02-13T04:19:57;46.55;;;18.80;;
29570;SDS011;16814;52.118;11.436;2023-02-13T04:22:23;44.17;;;17.90;;
29570;SDS011;16814;52.118;11.436;2023-02-13T04:24:53;34.90;;;15.52;;
29570;SDS011;16814;52.118;11.436;2023-02-13T04:27:19;40.80;;;15.63;;
29570;SDS011;16814;52.118;11.436;2023-02-13T04:29:44;33.05;;;14.20;;
29570;SDS011;16814;52.118;11.436;2023-02-13T04:32:12;30.33;;;13.77;;
29570;SDS011;16814;52.118;11.436;2023-02-13T04:34:40;29.65;;;13.98;;
29570;SDS011;16814;52.118;11.436;2023-02-13T04:37:05;31.80;;;13.85;;
29570;SDS011;16814;52.118;11.436;2023-02-13T04:39:33;30.63;;;12.30;;
29570;SDS011;16814;52.118;11.436;2023-02-13T04:41:59;27.23;;;12.55;;
29570;SDS011;16814;52.118;11.436;2023-02-13T04:44:28;32.97;;;13.23;;
29570;SDS011;16814;52.118;11.436;2023-02-13T04:46:53;29.75;;;12.60;;
29570;SDS011;16814;52.118;11.436;2023-02-13T04:49:20;31.10;;;12.63;;
29570;SDS011;16814;52.118;11.436;2023-02-13T04:51:48;32.90;;;13.10;;
29570;SDS011;16814;52.118;11.436;2023-02-13T04:54:13;32.78;;;13.40;;
29570;SDS011;16814;52.118;11.436;2023-02-13T04:56:39;32.65;;;12.82;;
29570;SDS011;16814;52.118;11.436;2023-02-13T04:59:04;33.63;;;12.73;;
29570;SDS011;16814;52.118;11.436;2023-02-13T05:01:32;29.67;;;12.15;;
29570;SDS011;16814;52.118;11.436;2023-02-13T05:03:59;24.35;;;11.35;;
29570;SDS011;16814;52.118;11.436;2023-02-13T05:06:26;28.77;;;11.23;;
29570;SDS011;16814;52.118;11.436;2023-02-13T05:08:53;24.83;;;11.47;;
29570;SDS011;16814;52.118;11.436;2023-02-13T05:11:20;26.10;;;11.48;;
29570;SDS011;16814;52.118;11.436;2023-02-13T05:13:48;25.77;;;11.80;;
29570;SDS011;16814;52.118;11.436;2023-02-13T05:16:13;27.48;;;11.27;;
29570;SDS011;16814;52.118;11.436;2023-02-13T05:18:40;26.83;;;12.00;;
29570;SDS011;16814;52.118;11.436;2023-02-13T05:21:05;29.10;;;12.50;;
29570;SDS011;16814;52.118;11.436;2023-02-13T05:23:51;26.63;;;11.13;;
29570;SDS011;16814;52.118;11.436;2023-02-13T05:26:19;28.60;;;12.15;;
29570;SDS011;16814;52.118;11.436;2023-02-13T05:28:52;25.27;;;11.18;;
29570;SDS011;16814;52.118;11.436;2023-02-13T05:31:41;28.15;;;13.00;;
29570;SDS011;16814;52.118;11.436;2023-02-13T05:34:09;25.92;;;11.27;;
29570;SDS011;16814;52.118;11.436;2023-02-13T05:36:35;25.95;;;11.18;;
29570;SDS011;16814;52.118;11.436;2023-02-13T05:39:02;26.07;;;11.00;;
29570;SDS011;16814;52.118;11.436;2023-02-13T05:41:28;26.13;;;10.93;;
29570;SDS011;16814;52.118;11.436;2023-02-13T05:43:55;27.93;;;11.20;;
29570;SDS011;16814;52.118;11.436;2023-02-13T05:46:22;25.85;;;11.60;;
29570;SDS011;16814;52.118;11.436;2023-02-13T05:48:47;29.48;;;11.27;;
29570;SDS011;16814;52.118;11.436;2023-02-13T05:51:15;23.08;;;10.55;;
29570;SDS011;16814;52.118;11.436;2023-02-13T05:53:44;28.00;;;11.07;;
29570;SDS011;16814;52.118;11.436;2023-02-13T05:56:10;27.65;;;10.95;;
29570;SDS011;16814;52.118;11.436;2023-02-13T05:58:37;25.88;;;10.32;;
29570;SDS011;16814;52.118;11.436;2023-02-13T06:01:06;27.23;;;10.50;;
29570;SDS011;16814;52.118;11.436;2023-02-13T06:03:32;26.50;;;10.50;;
29570;SDS011;16814;52.118;11.436;2023-02-13T06:05:58;27.70;;;10.52;;
29570;SDS011;16814;52.118;11.436;2023-02-13T06:08:26;25.80;;;10.38;;
29570;SDS011;16814;52.118;11.436;2023-02-13T06:10:53;25.85;;;10.68;;
29570;SDS011;16814;52.118;11.436;2023-02-13T06:13:21;24.27;;;10.80;;
29570;SDS011;16814;52.118;11.436;2023-02-13T06:15:47;25.45;;;10.90;;
29570;SDS011;16814;52.118;11.436;2023-02-13T06:18:14;25.50;;;10.20;;
29570;SDS011;16814;52.118;11.436;2023-02-13T06:20:44;27.25;;;10.52;;
29570;SDS011;16814;52.118;11.436;2023-02-13T06:23:11;25.20;;;10.57;;
29570;SDS011;16814;52.118;11.436;2023-02-13T06:25:39;24.92;;;10.30;;
29570;SDS011;16814;52.118;11.436;2023-02-13T06:28:06;22.87;;;9.43;;
29570;SDS011;16814;52.118;11.436;2023-02-13T06:30:33;29.15;;;10.15;;
29570;SDS011;16814;52.118;11.436;2023-02-13T06:32:58;22.83;;;9.10;;
29570;SDS011;16814;52.118;11.436;2023-02-13T06:35:27;23.48;;;9.05;;
29570;SDS011;16814;52.118;11.436;2023-02-13T06:37:52;22.60;;;9.30;;
29570;SDS011;16814;52.118;11.436;2023-02-13T06:40:18;22.93;;;8.80;;
29570;SDS011;16814;52.118;11.436;2023-02-13T06:42:44;19.40;;;8.27;;
29570;SDS011;16814;52.118;11.436;2023-02-13T06:45:10;19.05;;;8.27;;
29570;SDS011;16814;52.118;11.436;2023-02-13T06:47:40;18.10;;;8.35;;
29570;SDS011;16814;52.118;11.436;2023-02-13T06:50:12;21.80;;;7.95;;
29570;SDS011;16814;52.118;11.436;2023-02-13T06:52:49;17.65;;;7.80;;
29570;SDS011;16814;52.118;11.436;2023-02-13T06:55:17;20.17;;;8.40;;
29570;SDS011;16814;52.118;11.436;2023-02-13T06:57:46;21.35;;;7.95;;
29570;SDS011;16814;52.118;11.436;2023-02-13T07:00:13;20.92;;;8.25;;
29570;SDS011;16814;52.118;11.436;2023-02-13T07:02:40;16.30;;;7.45;;
29570;SDS011;16814;52.118;11.436;2023-02-13T07:05:07;19.92;;;7.80;;
29570;SDS011;16814;52.118;11.436;2023-02-13T07:07:35;19.33;;;7.63;;
29570;SDS011;16814;52.118;11.436;2023-02-13T07:10:04;16.95;;;7.70;;
29570;SDS011;16814;52.118;11.436;2023-02-13T07:12:32;18.92;;;8.15;;
29570;SDS011;16814;52.118;11.436;2023-02-13T07:15:01;22.17;;;8.30;;
29570;SDS011;16814;52.118;11.436;2023-02-13T07:17:30;18.45;;;7.43;;
29570;SDS011;16814;52.118;11.436;2023-02-13T07:19:57;19.33;;;8.02;;
29570;SDS011;16814;52.118;11.436;2023-02-13T07:22:24;22.03;;;8.00;;
29570;SDS011;16814;52.118;11.436;2023-02-13T07:24:50;20.90;;;8.30;;
29570;SDS011;16814;52.118;11.436;2023-02-13T07:27:15;23.57;;;8.47;;
29570;SDS011;16814;52.118;11.436;2023-02-13T07:29:43;18.20;;;7.95;;
29570;SDS011;16814;52.118;11.436;2023-02-13T07:32:09;20.95;;;7.90;;
29570;SDS011;16814;52.118;11.436;2023-02-13T07:34:36;18.88;;;7.28;;
29570;SDS011;16814;52.118;11.436;2023-02-13T07:37:02;19.23;;;7.77;;
29570;SDS011;16814;52.118;11.436;2023-02-13T07:39:29;17.08;;;7.60;;
29570;SDS011;16814;52.118;11.436;2023-02-13T07:41:56;18.70;;;7.50;;
29570;SDS011;16814;52.118;11.436;2023-02-13T07:44:23;18.05;;;7.53;;
29570;SDS011;16814;52.118;11.436;2023-02-13T07:46:50;17.15;;;7.28;;
29570;SDS011;16814;52.118;11.436;2023-02-13T07:49:17;18.20;;;7.50;;
29570;SDS011;16814;52.118;11.436;2023-02-13T07:51:44;22.33;;;7.87;;
29570;SDS011;16814;52.118;11.436;2023-02-13T07:54:09;17.67;;;7.72;;
29570;SDS011;16814;52.118;11.436;2023-02-13T07:56:36;17.23;;;8.07;;
29570;SDS011;16814;52.118;11.436;2023-02-13T07:59:03;21.50;;;7.78;;
29570;SDS011;16814;52.118;11.436;2023-02-13T08:01:31;19.25;;;8.13;;
29570;SDS011;16814;52.118;11.436;2023-02-13T08:03:58;22.60;;;7.80;;
29570;SDS011;16814;52.118;11.436;2023-02-13T08:06:25;18.08;;;7.47;;
29570;SDS011;16814;52.118;11.436;2023-02-13T08:08:53;21.03;;;7.97;;
29570;SDS011;16814;52.118;11.436;2023-02-13T08:11:38;17.35;;;7.72;;
29570;SDS011;16814;52.118;11.436;2023-02-13T08:14:19;17.45;;;7.45;;
29570;SDS011;16814;52.118;11.436;2023-02-13T08:16:49;19.52;;;7.55;;
29570;SDS011;16814;52.118;11.436;2023-02-13T08:19:15;16.70;;;7.18;;
29570;SDS011;16814;52.118;11.436;2023-02-13T08:21:42;16.92;;;7.53;;
29570;SDS011;16814;52.118;11.436;2023-02-13T08:24:08;15.10;;;7.25;;
29570;SDS011;16814;52.118;11.436;2023-02-13T08:26:38;18.15;;;7.60;;
29570;SDS011;16814;52.118;11.436;2023-02-13T08:29:06;18.65;;;7.07;;
29570;SDS011;16814;52.118;11.436;2023-02-13T08:31:32;17.90;;;7.70;;
29570;SDS011;16814;52.118;11.436;2023-02-13T08:33:58;15.00;;;7.00;;
29570;SDS011;16814;52.118;11.436;2023-02-13T08:36:26;16.05;;;7.00;;
29570;SDS011;16814;52.118;11.436;2023-02-13T08:38:55;14.77;;;7.32;;
29570;SDS011;16814;52.118;11.436;2023-02-13T08:41:20;14.50;;;6.60;;
29570;SDS011;16814;52.118;11.436;2023-02-13T08:43:48;18.23;;;7.00;;
29570;SDS011;16814;52.118;11.436;2023-02-13T08:46:17;15.50;;;7.25;;
29570;SDS011;16814;52.118;11.436;2023-02-13T08:48:44;14.03;;;6.47;;
29570;SDS011;16814;52.118;11.436;2023-02-13T08:51:11;15.70;;;6.63;;
29570;SDS011;16814;52.118;11.436;2023-02-13T08:53:37;16.10;;;6.97;;
29570;SDS011;16814;52.118;11.436;2023-02-13T08:56:04;11.65;;;6.07;;
29570;SDS011;16814;52.118;11.436;2023-02-13T08:58:30;16.20;;;7.00;;
29570;SDS011;16814;52.118;11.436;2023-02-13T09:00:57;12.43;;;6.03;;
29570;SDS011;16814;52.118;11.436;2023-02-13T09:03:22;15.45;;;6.25;;
29570;SDS011;16814;52.118;11.436;2023-02-13T09:05:48;13.80;;;6.60;;
29570;SDS011;16814;52.118;11.436;2023-02-13T09:08:14;13.10;;;6.18;;
29570;SDS011;16814;52.118;11.436;2023-02-13T09:10:40;13.32;;;6.10;;
29570;SDS011;16814;52.118;11.436;2023-02-13T09:13:13;12.80;;;6.28;;
29570;SDS011;16814;52.118;11.436;2023-02-13T09:15:40;14.73;;;6.22;;
29570;SDS011;16814;52.118;11.436;2023-02-13T09:18:06;14.03;;;6.40;;
29570;SDS011;16814;52.118;11.436;2023-02-13T09:20:33;14.20;;;6.20;;
29570;SDS011;16814;52.118;11.436;2023-02-13T09:23:00;12.32;;;6.13;;
29570;SDS011;16814;52.118;11.436;2023-02-13T09:25:25;12.75;;;5.90;;
29570;SDS011;16814;52.118;11.436;2023-02-13T09:27:52;14.87;;;6.40;;
29570;SDS011;16814;52.118;11.436;2023-02-13T09:30:19;12.93;;;6.22;;
29570;SDS011;16814;52.118;11.436;2023-02-13T09:32:52;13.98;;;6.00;;
29570;SDS011;16814;52.118;11.436;2023-02-13T09:35:19;12.73;;;6.33;;
29570;SDS011;16814;52.118;11.436;2023-02-13T09:37:47;11.55;;;5.95;;
29570;SDS011;16814;52.118;11.436;2023-02-13T09:40:24;14.02;;;6.43;;
29570;SDS011;16814;52.118;11.436;2023-02-13T09:43:03;20.57;;;6.90;;
29570;SDS011;16814;52.118;11.436;2023-02-13T09:45:38;12.95;;;6.10;;
29570;SDS011;16814;52.118;11.436;2023-02-13T09:48:07;13.52;;;6.28;;
29570;SDS011;16814;52.118;11.436;2023-02-13T09:50:57;16.27;;;6.13;;
29570;SDS011;16814;52.118;11.436;2023-02-13T09:53:34;15.98;;;6.60;;
29570;SDS011;16814;52.118;11.436;2023-02-13T09:59:05;13.18;;;6.45;;
29570;SDS011;16814;52.118;11.436;2023-02-13T10:01:31;13.88;;;6.50;;
29570;SDS011;16814;52.118;11.436;2023-02-13T10:07:04;15.82;;;6.43;;
29570;SDS011;16814;52.118;11.436;2023-02-13T10:09:54;14.30;;;5.95;;
29570;SDS011;16814;52.118;11.436;2023-02-13T10:12:50;13.25;;;5.60;;
29570;SDS011;16814;52.118;11.436;2023-02-13T10:15:41;11.93;;;4.82;;
29570;SDS011;16814;52.118;11.436;2023-02-13T10:18:17;19.08;;;5.18;;
29570;SDS011;16814;52.118;11.436;2023-02-13T10:20:55;17.70;;;5.30;;
29570;SDS011;16814;52.118;11.436;2023-02-13T10:23:42;10.20;;;4.80;;
29570;SDS011;16814;52.118;11.436;2023-02-13T10:26:22;10.52;;;4.50;;
29570;SDS011;16814;52.118;11.436;2023-02-13T10:32:26;8.35;;;4.55;;
29570;SDS011;16814;52.118;11.436;2023-02-13T10:34:56;9.85;;;4.85;;
29570;SDS011;16814;52.118;11.436;2023-02-13T10:37:24;8.82;;;5.00;;
29570;SDS011;16814;52.118;11.436;2023-02-13T10:39:52;9.18;;;4.68;;
29570;SDS011;16814;52.118;11.436;2023-02-13T10:42:20;9.27;;;4.97;;
29570;SDS011;16814;52.118;11.436;2023-02-13T10:53:45;8.02;;;4.57;;
29570;SDS011;16814;52.118;11.436;2023-02-13T11:01:59;8.45;;;4.38;;
29570;SDS011;16814;52.118;11.436;2023-02-13T11:04:36;8.25;;;4.60;;
29570;SDS011;16814;52.118;11.436;2023-02-13T11:07:02;6.95;;;4.05;;
29570;SDS011;16814;52.118;11.436;2023-02-13T11:09:36;8.75;;;4.40;;
29570;SDS011;16814;52.118;11.436;2023-02-13T11:14:55;9.82;;;4.07;;
29570;SDS011;16814;52.118;11.436;2023-02-13T11:17:39;8.18;;;4.50;;
29570;SDS011;16814;52.118;11.436;2023-02-13T11:31:43;9.65;;;4.72;;
29570;SDS011;16814;52.118;11.436;2023-02-13T11:34:26;8.80;;;4.43;;
29570;SDS011;16814;52.118;11.436;2023-02-13T11:37:40;7.25;;;4.22;;
29570;SDS011;16814;52.118;11.436;2023-02-13T11:39:45;8.93;;;4.80;;
29570;SDS011;16814;52.118;11.436;2023-02-13T11:42:31;10.05;;;5.00;;
29570;SDS011;16814;52.118;11.436;2023-02-13T11:45:03;11.00;;;5.47;;
29570;SDS011;16814;52.118;11.436;2023-02-13T11:47:44;14.50;;;5.75;;
29570;SDS011;16814;52.118;11.436;2023-02-13T11:50:29;10.37;;;5.30;;
29570;SDS011;16814;52.118;11.436;2023-02-13T11:53:05;10.98;;;5.88;;
29570;SDS011;16814;52.118;11.436;2023-02-13T11:55:37;10.27;;;5.18;;
29570;SDS011;16814;52.118;11.436;2023-02-13T12:00:40;11.40;;;5.60;;
29570;SDS011;16814;52.118;11.436;2023-02-13T12:03:26;12.43;;;6.20;;
29570;SDS011;16814;52.118;11.436;2023-02-13T12:05:58;9.68;;;5.78;;
29570;SDS011;16814;52.118;11.436;2023-02-13T12:08:43;10.23;;;5.50;;
29570;SDS011;16814;52.118;11.436;2023-02-13T12:14:02;9.45;;;4.70;;
29570;SDS011;16814;52.118;11.436;2023-02-13T12:16:41;9.45;;;4.22;;
29570;SDS011;16814;52.118;11.436;2023-02-13T12:19:17;7.35;;;3.38;;
29570;SDS011;16814;52.118;11.436;2023-02-13T12:45:15;6.85;;;4.05;;
29570;SDS011;16814;52.118;11.436;2023-02-13T12:54:09;7.10;;;4.18;;
29570;SDS011;16814;52.118;11.436;2023-02-13T12:57:12;6.00;;;4.25;;
29570;SDS011;16814;52.118;11.436;2023-02-13T12:59:56;9.85;;;5.30;;
29570;SDS011;16814;52.118;11.436;2023-02-13T13:14:34;9.85;;;6.45;;
29570;SDS011;16814;52.118;11.436;2023-02-13T13:17:26;10.77;;;5.90;;
29570;SDS011;16814;52.118;11.436;2023-02-13T13:23:10;11.65;;;6.25;;
29570;SDS011;16814;52.118;11.436;2023-02-13T13:26:50;7.68;;;5.60;;
29570;SDS011;16814;52.118;11.436;2023-02-13T13:29:19;10.45;;;5.55;;
29570;SDS011;16814;52.118;11.436;2023-02-13T13:32:12;9.35;;;5.35;;
29570;SDS011;16814;52.118;11.436;2023-02-13T13:34:42;8.93;;;6.05;;
29570;SDS011;16814;52.118;11.436;2023-02-13T13:37:29;8.27;;;5.80;;
29570;SDS011;16814;52.118;11.436;2023-02-13T13:43:33;11.48;;;6.07;;
29570;SDS011;16814;52.118;11.436;2023-02-13T13:46:20;8.33;;;5.23;;
29570;SDS011;16814;52.118;11.436;2023-02-13T13:48:54;8.33;;;5.30;;
29570;SDS011;16814;52.118;11.436;2023-02-13T13:51:44;8.63;;;5.82;;
29570;SDS011;16814;52.118;11.436;2023-02-13T13:59:18;11.40;;;7.07;;
29570;SDS011;16814;52.118;11.436;2023-02-13T14:07:42;11.77;;;7.93;;
29570;SDS011;16814;52.118;11.436;2023-02-13T14:12:47;12.43;;;8.63;;
29570;SDS011;16814;52.118;11.436;2023-02-13T14:28:43;13.55;;;9.07;;
29570;SDS011;16814;52.118;11.436;2023-02-13T14:33:58;14.60;;;9.57;;
29570;SDS011;16814;52.118;11.436;2023-02-13T14:36:29;13.45;;;9.32;;
29570;SDS011;16814;52.118;11.436;2023-02-13T14:41:58;10.95;;;7.72;;
29570;SDS011;16814;52.118;11.436;2023-02-13T14:47:18;12.43;;;8.20;;
29570;SDS011;16814;52.118;11.436;2023-02-13T14:50:04;10.77;;;7.82;;
29570;SDS011;16814;52.118;11.436;2023-02-13T14:55:15;12.13;;;8.15;;
29570;SDS011;16814;52.118;11.436;2023-02-13T14:58:06;12.98;;;8.85;;
29570;SDS011;16814;52.118;11.436;2023-02-13T15:01:03;12.03;;;9.00;;
29570;SDS011;16814;52.118;11.436;2023-02-13T15:03:41;15.25;;;9.05;;
29570;SDS011;16814;52.118;11.436;2023-02-13T15:06:18;15.40;;;9.20;;
29570;SDS011;16814;52.118;11.436;2023-02-13T15:08:59;15.00;;;10.10;;
29570;SDS011;16814;52.118;11.436;2023-02-13T15:11:32;15.18;;;10.82;;
29570;SDS011;16814;52.118;11.436;2023-02-13T15:19:58;16.83;;;11.63;;
29570;SDS011;16814;52.118;11.436;2023-02-13T15:22:40;16.73;;;11.25;;
29570;SDS011;16814;52.118;11.436;2023-02-13T15:25:24;14.77;;;10.27;;
29570;SDS011;16814;52.118;11.436;2023-02-13T15:27:56;13.13;;;10.00;;
29570;SDS011;16814;52.118;11.436;2023-02-13T15:30:30;16.23;;;10.88;;
29570;SDS011;16814;52.118;11.436;2023-02-13T15:33:01;14.73;;;10.80;;
29570;SDS011;16814;52.118;11.436;2023-02-13T15:35:44;15.50;;;11.05;;
29570;SDS011;16814;52.118;11.436;2023-02-13T15:40:50;18.60;;;10.95;;
29570;SDS011;16814;52.118;11.436;2023-02-13T15:43:26;18.17;;;10.93;;
29570;SDS011;16814;52.118;11.436;2023-02-13T15:48:44;17.80;;;10.05;;
29570;SDS011;16814;52.118;11.436;2023-02-13T15:51:23;13.13;;;8.85;;
29570;SDS011;16814;52.118;11.436;2023-02-13T15:53:56;13.32;;;9.23;;
29570;SDS011;16814;52.118;11.436;2023-02-13T15:56:31;14.85;;;9.57;;
29570;SDS011;16814;52.118;11.436;2023-02-13T15:58:58;18.90;;;10.00;;
29570;SDS011;16814;52.118;11.436;2023-02-13T16:01:25;17.23;;;9.83;;
29570;SDS011;16814;52.118;11.436;2023-02-13T16:04:01;16.95;;;10.20;;
29570;SDS011;16814;52.118;11.436;2023-02-13T16:06:30;13.30;;;9.63;;
29570;SDS011;16814;52.118;11.436;2023-02-13T16:08:59;17.20;;;9.52;;
29570;SDS011;16814;52.118;11.436;2023-02-13T16:11:42;17.93;;;10.10;;
29570;SDS011;16814;52.118;11.436;2023-02-13T16:14:21;25.25;;;9.70;;
29570;SDS011;16814;52.118;11.436;2023-02-13T16:16:57;12.25;;;8.65;;
29570;SDS011;16814;52.118;11.436;2023-02-13T16:22:05;11.20;;;8.27;;
29570;SDS011;16814;52.118;11.436;2023-02-13T16:24:48;10.98;;;7.78;;
29570;SDS011;16814;52.118;11.436;2023-02-13T16:27:26;13.90;;;8.10;;
29570;SDS011;16814;52.118;11.436;2023-02-13T16:30:00;15.67;;;8.77;;
29570;SDS011;16814;52.118;11.436;2023-02-13T16:32:33;14.43;;;9.43;;
29570;SDS011;16814;52.118;11.436;2023-02-13T16:35:30;14.30;;;9.35;;
29570;SDS011;16814;52.118;11.436;2023-02-13T16:37:59;13.90;;;9.57;;
29570;SDS011;16814;52.118;11.436;2023-02-13T16:40:34;13.60;;;8.90;;
29570;SDS011;16814;52.118;11.436;2023-02-13T16:54:14;19.98;;;12.38;;
29570;SDS011;16814;52.118;11.436;2023-02-13T17:00:02;31.92;;;16.00;;
29570;SDS011;16814;52.118;11.436;2023-02-13T17:05:00;17.90;;;11.23;;
29570;SDS011;16814;52.118;11.436;2023-02-13T17:07:40;20.92;;;11.52;;
29570;SDS011;16814;52.118;11.436;2023-02-13T17:10:27;26.45;;;14.00;;
29570;SDS011;16814;52.118;11.436;2023-02-13T17:13:02;31.48;;;17.70;;
29570;SDS011;16814;52.118;11.436;2023-02-13T17:15:43;31.88;;;16.25;;
29570;SDS011;16814;52.118;11.436;2023-02-13T17:18:11;23.23;;;13.45;;
29570;SDS011;16814;52.118;11.436;2023-02-13T17:20:39;11.57;;;7.80;;
29570;SDS011;16814;52.118;11.436;2023-02-13T17:23:13;10.60;;;7.60;;
29570;SDS011;16814;52.118;11.436;2023-02-13T17:25:46;12.23;;;7.57;;
29570;SDS011;16814;52.118;11.436;2023-02-13T17:28:24;10.52;;;7.38;;
29570;SDS011;16814;52.118;11.436;2023-02-13T17:30:56;11.63;;;7.97;;
29570;SDS011;16814;52.118;11.436;2023-02-13T17:33:28;13.55;;;8.43;;
29570;SDS011;16814;52.118;11.436;2023-02-13T17:35:58;14.50;;;9.50;;
29570;SDS011;16814;52.118;11.436;2023-02-13T17:38:26;15.05;;;9.15;;
29570;SDS011;16814;52.118;11.436;2023-02-13T17:40:51;13.70;;;8.52;;
29570;SDS011;16814;52.118;11.436;2023-02-13T17:43:18;12.90;;;8.13;;
29570;SDS011;16814;52.118;11.436;2023-02-13T17:45:45;17.60;;;8.50;;
29570;SDS011;16814;52.118;11.436;2023-02-13T17:48:13;12.15;;;8.02;;
29570;SDS011;16814;52.118;11.436;2023-02-13T17:50:40;13.33;;;8.60;;
29570;SDS011;16814;52.118;11.436;2023-02-13T17:56:03;12.00;;;8.05;;
29570;SDS011;16814;52.118;11.436;2023-02-13T17:58:38;11.73;;;8.05;;
29570;SDS011;16814;52.118;11.436;2023-02-13T18:01:08;11.20;;;7.90;;
29570;SDS011;16814;52.118;11.436;2023-02-13T18:03:35;12.20;;;8.65;;
29570;SDS011;16814;52.118;11.436;2023-02-13T18:06:02;12.48;;;8.48;;
29570;SDS011;16814;52.118;11.436;2023-02-13T18:08:29;13.45;;;7.60;;
29570;SDS011;16814;52.118;11.436;2023-02-13T18:10:56;10.38;;;6.72;;
29570;SDS011;16814;52.118;11.436;2023-02-13T18:13:27;10.85;;;6.85;;
29570;SDS011;16814;52.118;11.436;2023-02-13T18:15:52;10.20;;;6.57;;
29570;SDS011;16814;52.118;11.436;2023-02-13T18:18:19;8.25;;;5.40;;